sensor_id;sensor_type;location;lat;lon;timestamp;P1;durP1;ratioP1;P2;durP2;ratioP2
920;SDS011;447;51.332;6.778;2022-12-18T00:01:19;20.80;;;10.07;;
920;SDS011;447;51.332;6.778;2022-12-18T00:03:47;14.82;;;8.32;;
920;SDS011;447;51.332;6.778;2022-12-18T00:06:14;13.70;;;8.45;;
920;SDS011;447;51.332;6.778;2022-12-18T00:08:41;18.45;;;8.95;;
920;SDS011;447;51.332;6.778;2022-12-18T00:11:09;15.35;;;8.95;;
920;SDS011;447;51.332;6.778;2022-12-18T00:13:38;11.80;;;7.95;;
920;SDS011;447;51.332;6.778;2022-12-18T00:16:05;14.52;;;7.22;;
920;SDS011;447;51.332;6.778;2022-12-18T00:18:38;13.65;;;8.15;;
920;SDS011;447;51.332;6.778;2022-12-18T00:21:06;16.55;;;8.30;;
920;SDS011;447;51.332;6.778;2022-12-18T00:23:34;11.50;;;7.72;;
920;SDS011;447;51.332;6.778;2022-12-18T00:26:07;13.70;;;8.82;;
920;SDS011;447;51.332;6.778;2022-12-18T00:28:36;12.70;;;8.02;;
920;SDS011;447;51.332;6.778;2022-12-18T00:31:06;13.27;;;7.95;;
920;SDS011;447;51.332;6.778;2022-12-18T00:33:38;12.35;;;7.22;;
920;SDS011;447;51.332;6.778;2022-12-18T00:36:05;12.20;;;7.53;;
920;SDS011;447;51.332;6.778;2022-12-18T00:38:36;13.63;;;7.22;;
920;SDS011;447;51.332;6.778;2022-12-18T00:41:02;10.18;;;6.88;;
920;SDS011;447;51.332;6.778;2022-12-18T00:43:29;10.10;;;6.65;;
920;SDS011;447;51.332;6.778;2022-12-18T00:45:55;11.32;;;6.82;;
920;SDS011;447;51.332;6.778;2022-12-18T00:48:21;8.95;;;6.35;;
920;SDS011;447;51.332;6.778;2022-12-18T00:50:50;12.32;;;6.72;;
920;SDS011;447;51.332;6.778;2022-12-18T00:53:17;11.27;;;7.10;;
920;SDS011;447;51.332;6.778;2022-12-18T00:55:43;9.20;;;5.80;;
920;SDS011;447;51.332;6.778;2022-12-18T00:58:15;11.75;;;6.68;;
920;SDS011;447;51.332;6.778;2022-12-18T01:00:42;16.40;;;7.63;;
920;SDS011;447;51.332;6.778;2022-12-18T01:03:12;10.90;;;6.65;;
920;SDS011;447;51.332;6.778;2022-12-18T01:05:39;12.13;;;6.43;;
920;SDS011;447;51.332;6.778;2022-12-18T01:08:08;10.45;;;6.25;;
920;SDS011;447;51.332;6.778;2022-12-18T01:10:45;8.65;;;5.18;;
920;SDS011;447;51.332;6.778;2022-12-18T01:13:13;10.00;;;6.40;;
920;SDS011;447;51.332;6.778;2022-12-18T01:15:47;17.33;;;6.65;;
920;SDS011;447;51.332;6.778;2022-12-18T01:18:18;9.88;;;6.90;;
920;SDS011;447;51.332;6.778;2022-12-18T01:20:46;12.88;;;6.57;;
920;SDS011;447;51.332;6.778;2022-12-18T01:23:12;10.73;;;6.20;;
920;SDS011;447;51.332;6.778;2022-12-18T01:25:40;11.75;;;6.47;;
920;SDS011;447;51.332;6.778;2022-12-18T01:28:09;9.70;;;5.55;;
920;SDS011;447;51.332;6.778;2022-12-18T01:30:35;13.38;;;5.72;;
920;SDS011;447;51.332;6.778;2022-12-18T01:33:01;10.20;;;5.73;;
920;SDS011;447;51.332;6.778;2022-12-18T01:35:41;10.25;;;6.35;;
920;SDS011;447;51.332;6.778;2022-12-18T01:38:10;9.75;;;5.82;;
920;SDS011;447;51.332;6.778;2022-12-18T01:40:39;10.68;;;6.05;;
920;SDS011;447;51.332;6.778;2022-12-18T01:43:08;10.00;;;5.47;;
920;SDS011;447;51.332;6.778;2022-12-18T01:45:34;9.27;;;6.53;;
920;SDS011;447;51.332;6.778;2022-12-18T01:48:02;7.53;;;5.30;;
920;SDS011;447;51.332;6.778;2022-12-18T01:50:41;11.77;;;6.55;;
920;SDS011;447;51.332;6.778;2022-12-18T01:53:17;8.73;;;5.70;;
920;SDS011;447;51.332;6.778;2022-12-18T01:58:18;9.35;;;5.65;;
920;SDS011;447;51.332;6.778;2022-12-18T02:00:48;8.55;;;5.63;;
920;SDS011;447;51.332;6.778;2022-12-18T02:03:18;8.38;;;5.70;;
920;SDS011;447;51.332;6.778;2022-12-18T02:05:49;8.95;;;5.53;;
920;SDS011;447;51.332;6.778;2022-12-18T02:08:32;11.93;;;6.05;;
920;SDS011;447;51.332;6.778;2022-12-18T02:14:22;10.13;;;5.40;;
920;SDS011;447;51.332;6.778;2022-12-18T02:19:55;8.15;;;5.43;;
920;SDS011;447;51.332;6.778;2022-12-18T02:28:12;12.82;;;6.20;;
920;SDS011;447;51.332;6.778;2022-12-18T02:30:44;8.50;;;5.65;;
920;SDS011;447;51.332;6.778;2022-12-18T02:33:13;8.75;;;5.72;;
920;SDS011;447;51.332;6.778;2022-12-18T02:35:43;9.55;;;5.35;;
920;SDS011;447;51.332;6.778;2022-12-18T02:38:16;12.05;;;6.32;;
920;SDS011;447;51.332;6.778;2022-12-18T02:40:45;9.05;;;6.13;;
920;SDS011;447;51.332;6.778;2022-12-18T02:43:18;9.35;;;5.43;;
920;SDS011;447;51.332;6.778;2022-12-18T02:45:52;8.82;;;6.05;;
920;SDS011;447;51.332;6.778;2022-12-18T02:48:31;8.43;;;6.00;;
920;SDS011;447;51.332;6.778;2022-12-18T02:51:17;7.82;;;5.40;;
920;SDS011;447;51.332;6.778;2022-12-18T02:53:50;8.82;;;5.03;;
920;SDS011;447;51.332;6.778;2022-12-18T02:56:38;10.10;;;5.82;;
920;SDS011;447;51.332;6.778;2022-12-18T02:59:23;11.10;;;6.55;;
920;SDS011;447;51.332;6.778;2022-12-18T03:02:19;8.75;;;5.18;;
920;SDS011;447;51.332;6.778;2022-12-18T03:07:39;7.93;;;5.27;;
920;SDS011;447;51.332;6.778;2022-12-18T03:10:24;10.55;;;5.82;;
920;SDS011;447;51.332;6.778;2022-12-18T03:13:08;10.27;;;6.40;;
920;SDS011;447;51.332;6.778;2022-12-18T03:15:45;11.25;;;6.15;;
920;SDS011;447;51.332;6.778;2022-12-18T03:18:19;12.00;;;5.85;;
920;SDS011;447;51.332;6.778;2022-12-18T03:20:55;10.80;;;5.90;;
920;SDS011;447;51.332;6.778;2022-12-18T03:23:27;9.00;;;5.50;;
920;SDS011;447;51.332;6.778;2022-12-18T03:25:58;8.95;;;5.88;;
920;SDS011;447;51.332;6.778;2022-12-18T03:28:27;10.02;;;5.15;;
920;SDS011;447;51.332;6.778;2022-12-18T03:31:02;8.73;;;5.70;;
920;SDS011;447;51.332;6.778;2022-12-18T03:36:31;7.95;;;5.32;;
920;SDS011;447;51.332;6.778;2022-12-18T03:39:00;8.85;;;5.82;;
920;SDS011;447;51.332;6.778;2022-12-18T03:47:09;9.98;;;5.55;;
920;SDS011;447;51.332;6.778;2022-12-18T03:54:49;8.52;;;5.75;;
920;SDS011;447;51.332;6.778;2022-12-18T03:57:18;6.85;;;4.60;;
920;SDS011;447;51.332;6.778;2022-12-18T03:59:50;9.80;;;4.70;;
920;SDS011;447;51.332;6.778;2022-12-18T04:02:26;9.95;;;5.40;;
920;SDS011;447;51.332;6.778;2022-12-18T04:04:59;8.95;;;4.65;;
920;SDS011;447;51.332;6.778;2022-12-18T04:07:28;6.78;;;4.35;;
920;SDS011;447;51.332;6.778;2022-12-18T04:09:57;8.02;;;5.30;;
920;SDS011;447;51.332;6.778;2022-12-18T04:12:29;8.93;;;5.40;;
920;SDS011;447;51.332;6.778;2022-12-18T04:14:56;9.70;;;5.40;;
920;SDS011;447;51.332;6.778;2022-12-18T04:17:25;7.97;;;5.43;;
920;SDS011;447;51.332;6.778;2022-12-18T04:19:53;10.48;;;4.93;;
920;SDS011;447;51.332;6.778;2022-12-18T04:22:23;7.50;;;4.43;;
920;SDS011;447;51.332;6.778;2022-12-18T04:24:58;8.32;;;4.85;;
920;SDS011;447;51.332;6.778;2022-12-18T04:27:31;8.45;;;5.25;;
920;SDS011;447;51.332;6.778;2022-12-18T04:30:00;6.30;;;4.70;;
920;SDS011;447;51.332;6.778;2022-12-18T04:32:26;9.30;;;4.80;;
920;SDS011;447;51.332;6.778;2022-12-18T04:34:54;8.13;;;5.25;;
920;SDS011;447;51.332;6.778;2022-12-18T04:37:21;8.00;;;5.40;;
920;SDS011;447;51.332;6.778;2022-12-18T04:39:49;8.48;;;4.57;;
920;SDS011;447;51.332;6.778;2022-12-18T04:42:22;7.55;;;4.60;;
920;SDS011;447;51.332;6.778;2022-12-18T04:44:49;6.72;;;4.13;;
920;SDS011;447;51.332;6.778;2022-12-18T04:47:15;7.30;;;4.57;;
920;SDS011;447;51.332;6.778;2022-12-18T04:49:45;7.60;;;4.32;;
920;SDS011;447;51.332;6.778;2022-12-18T04:52:16;8.77;;;4.97;;
920;SDS011;447;51.332;6.778;2022-12-18T04:54:45;7.57;;;5.38;;
920;SDS011;447;51.332;6.778;2022-12-18T04:57:11;7.60;;;5.00;;
920;SDS011;447;51.332;6.778;2022-12-18T04:59:44;7.85;;;4.85;;
920;SDS011;447;51.332;6.778;2022-12-18T05:02:10;7.80;;;4.82;;
920;SDS011;447;51.332;6.778;2022-12-18T05:04:36;8.25;;;4.88;;
920;SDS011;447;51.332;6.778;2022-12-18T05:07:02;7.20;;;5.13;;
920;SDS011;447;51.332;6.778;2022-12-18T05:09:31;8.00;;;4.80;;
920;SDS011;447;51.332;6.778;2022-12-18T05:12:01;8.40;;;5.15;;
920;SDS011;447;51.332;6.778;2022-12-18T05:14:29;6.75;;;4.70;;
920;SDS011;447;51.332;6.778;2022-12-18T05:16:55;6.47;;;4.33;;
920;SDS011;447;51.332;6.778;2022-12-18T05:19:21;6.78;;;3.85;;
920;SDS011;447;51.332;6.778;2022-12-18T05:21:51;8.50;;;4.85;;
920;SDS011;447;51.332;6.778;2022-12-18T05:24:17;8.30;;;4.78;;
920;SDS011;447;51.332;6.778;2022-12-18T05:26:46;8.75;;;4.75;;
920;SDS011;447;51.332;6.778;2022-12-18T05:29:12;6.93;;;4.65;;
920;SDS011;447;51.332;6.778;2022-12-18T05:31:42;6.47;;;4.10;;
920;SDS011;447;51.332;6.778;2022-12-18T05:34:08;6.82;;;4.25;;
920;SDS011;447;51.332;6.778;2022-12-18T05:36:34;8.40;;;4.40;;
920;SDS011;447;51.332;6.778;2022-12-18T05:39:00;7.10;;;4.73;;
920;SDS011;447;51.332;6.778;2022-12-18T05:41:29;6.82;;;4.68;;
920;SDS011;447;51.332;6.778;2022-12-18T05:43:55;8.40;;;4.60;;
920;SDS011;447;51.332;6.778;2022-12-18T05:46:23;6.47;;;4.50;;
920;SDS011;447;51.332;6.778;2022-12-18T05:48:51;7.20;;;3.80;;
920;SDS011;447;51.332;6.778;2022-12-18T05:51:19;6.30;;;4.03;;
920;SDS011;447;51.332;6.778;2022-12-18T05:53:50;7.35;;;4.80;;
920;SDS011;447;51.332;6.778;2022-12-18T05:56:18;6.25;;;3.90;;
920;SDS011;447;51.332;6.778;2022-12-18T05:58:45;9.07;;;4.60;;
920;SDS011;447;51.332;6.778;2022-12-18T06:01:16;5.65;;;3.95;;
920;SDS011;447;51.332;6.778;2022-12-18T06:03:46;6.55;;;4.03;;
920;SDS011;447;51.332;6.778;2022-12-18T06:06:25;4.13;;;3.35;;
920;SDS011;447;51.332;6.778;2022-12-18T06:08:54;6.45;;;3.72;;
920;SDS011;447;51.332;6.778;2022-12-18T06:11:25;4.93;;;3.97;;
920;SDS011;447;51.332;6.778;2022-12-18T06:13:56;5.80;;;4.15;;
920;SDS011;447;51.332;6.778;2022-12-18T06:16:25;6.05;;;4.40;;
920;SDS011;447;51.332;6.778;2022-12-18T06:18:58;6.03;;;3.65;;
920;SDS011;447;51.332;6.778;2022-12-18T06:21:27;4.78;;;3.60;;
920;SDS011;447;51.332;6.778;2022-12-18T06:23:53;6.63;;;3.85;;
920;SDS011;447;51.332;6.778;2022-12-18T06:26:20;6.60;;;4.17;;
920;SDS011;447;51.332;6.778;2022-12-18T06:28:51;5.10;;;3.30;;
920;SDS011;447;51.332;6.778;2022-12-18T06:31:17;7.57;;;4.20;;
920;SDS011;447;51.332;6.778;2022-12-18T06:33:43;6.60;;;4.10;;
920;SDS011;447;51.332;6.778;2022-12-18T06:36:12;7.97;;;4.53;;
920;SDS011;447;51.332;6.778;2022-12-18T06:38:39;6.20;;;4.13;;
920;SDS011;447;51.332;6.778;2022-12-18T06:41:11;4.82;;;4.15;;
920;SDS011;447;51.332;6.778;2022-12-18T06:43:39;6.55;;;4.32;;
920;SDS011;447;51.332;6.778;2022-12-18T06:46:05;7.93;;;4.45;;
920;SDS011;447;51.332;6.778;2022-12-18T06:48:36;6.00;;;4.15;;
920;SDS011;447;51.332;6.778;2022-12-18T06:51:07;6.78;;;4.55;;
920;SDS011;447;51.332;6.778;2022-12-18T06:53:38;5.30;;;3.80;;
920;SDS011;447;51.332;6.778;2022-12-18T06:56:05;5.43;;;3.83;;
920;SDS011;447;51.332;6.778;2022-12-18T06:58:34;8.15;;;4.10;;
920;SDS011;447;51.332;6.778;2022-12-18T07:01:09;8.80;;;4.07;;
920;SDS011;447;51.332;6.778;2022-12-18T07:03:39;8.07;;;4.35;;
920;SDS011;447;51.332;6.778;2022-12-18T07:06:06;8.82;;;5.05;;
920;SDS011;447;51.332;6.778;2022-12-18T07:08:38;4.72;;;3.58;;
920;SDS011;447;51.332;6.778;2022-12-18T07:11:04;8.60;;;3.90;;
920;SDS011;447;51.332;6.778;2022-12-18T07:13:30;8.60;;;4.75;;
920;SDS011;447;51.332;6.778;2022-12-18T07:16:08;6.80;;;3.90;;
920;SDS011;447;51.332;6.778;2022-12-18T07:18:36;8.05;;;4.78;;
920;SDS011;447;51.332;6.778;2022-12-18T07:21:11;6.30;;;4.53;;
920;SDS011;447;51.332;6.778;2022-12-18T07:23:40;6.15;;;4.45;;
920;SDS011;447;51.332;6.778;2022-12-18T07:26:07;8.40;;;4.78;;
920;SDS011;447;51.332;6.778;2022-12-18T07:28:36;6.65;;;4.22;;
920;SDS011;447;51.332;6.778;2022-12-18T07:31:06;8.20;;;4.53;;
920;SDS011;447;51.332;6.778;2022-12-18T07:33:34;6.35;;;4.13;;
920;SDS011;447;51.332;6.778;2022-12-18T07:36:03;5.60;;;4.00;;
920;SDS011;447;51.332;6.778;2022-12-18T07:38:33;6.10;;;4.35;;
920;SDS011;447;51.332;6.778;2022-12-18T07:41:01;6.50;;;4.53;;
920;SDS011;447;51.332;6.778;2022-12-18T07:43:28;7.22;;;4.70;;
920;SDS011;447;51.332;6.778;2022-12-18T07:45:57;7.40;;;4.93;;
920;SDS011;447;51.332;6.778;2022-12-18T07:48:26;7.80;;;5.00;;
920;SDS011;447;51.332;6.778;2022-12-18T07:50:53;6.22;;;4.22;;
920;SDS011;447;51.332;6.778;2022-12-18T07:53:19;7.70;;;4.60;;
920;SDS011;447;51.332;6.778;2022-12-18T07:55:44;8.55;;;4.65;;
920;SDS011;447;51.332;6.778;2022-12-18T07:58:13;8.15;;;5.05;;
920;SDS011;447;51.332;6.778;2022-12-18T08:00:39;7.38;;;5.10;;
920;SDS011;447;51.332;6.778;2022-12-18T08:03:09;6.55;;;4.38;;
920;SDS011;447;51.332;6.778;2022-12-18T08:05:38;9.23;;;5.18;;
920;SDS011;447;51.332;6.778;2022-12-18T08:08:07;7.18;;;4.50;;
920;SDS011;447;51.332;6.778;2022-12-18T08:10:38;7.68;;;4.75;;
920;SDS011;447;51.332;6.778;2022-12-18T08:13:11;8.80;;;4.75;;
920;SDS011;447;51.332;6.778;2022-12-18T08:15:39;8.25;;;4.90;;
920;SDS011;447;51.332;6.778;2022-12-18T08:18:08;6.10;;;4.43;;
920;SDS011;447;51.332;6.778;2022-12-18T08:20:41;10.10;;;6.18;;
920;SDS011;447;51.332;6.778;2022-12-18T08:23:10;7.03;;;4.93;;
920;SDS011;447;51.332;6.778;2022-12-18T08:25:38;9.85;;;5.28;;
920;SDS011;447;51.332;6.778;2022-12-18T08:28:05;10.13;;;5.60;;
920;SDS011;447;51.332;6.778;2022-12-18T08:30:34;7.55;;;5.72;;
920;SDS011;447;51.332;6.778;2022-12-18T08:33:00;8.07;;;4.93;;
920;SDS011;447;51.332;6.778;2022-12-18T08:35:29;7.97;;;4.95;;
920;SDS011;447;51.332;6.778;2022-12-18T08:37:55;8.23;;;5.30;;
920;SDS011;447;51.332;6.778;2022-12-18T08:40:21;9.37;;;5.40;;
920;SDS011;447;51.332;6.778;2022-12-18T08:42:47;11.45;;;5.32;;
920;SDS011;447;51.332;6.778;2022-12-18T08:45:31;6.63;;;5.13;;
920;SDS011;447;51.332;6.778;2022-12-18T08:47:59;10.07;;;5.45;;
920;SDS011;447;51.332;6.778;2022-12-18T08:50:25;9.30;;;5.75;;
920;SDS011;447;51.332;6.778;2022-12-18T08:52:53;7.37;;;5.37;;
920;SDS011;447;51.332;6.778;2022-12-18T08:55:19;8.05;;;5.10;;
920;SDS011;447;51.332;6.778;2022-12-18T08:57:47;10.27;;;6.50;;
920;SDS011;447;51.332;6.778;2022-12-18T09:00:16;9.98;;;6.35;;
920;SDS011;447;51.332;6.778;2022-12-18T09:02:45;8.00;;;5.70;;
920;SDS011;447;51.332;6.778;2022-12-18T09:05:11;8.90;;;5.28;;
920;SDS011;447;51.332;6.778;2022-12-18T09:07:37;7.97;;;5.20;;
920;SDS011;447;51.332;6.778;2022-12-18T09:10:03;7.15;;;4.88;;
920;SDS011;447;51.332;6.778;2022-12-18T09:12:30;8.23;;;5.30;;
920;SDS011;447;51.332;6.778;2022-12-18T09:14:56;6.68;;;4.57;;
920;SDS011;447;51.332;6.778;2022-12-18T09:17:22;12.02;;;5.50;;
920;SDS011;447;51.332;6.778;2022-12-18T09:19:48;10.57;;;6.10;;
920;SDS011;447;51.332;6.778;2022-12-18T09:22:17;8.60;;;5.40;;
920;SDS011;447;51.332;6.778;2022-12-18T09:24:43;8.77;;;5.47;;
920;SDS011;447;51.332;6.778;2022-12-18T09:27:11;11.02;;;5.95;;
920;SDS011;447;51.332;6.778;2022-12-18T09:29:40;10.30;;;5.43;;
920;SDS011;447;51.332;6.778;2022-12-18T09:32:08;9.55;;;5.38;;
920;SDS011;447;51.332;6.778;2022-12-18T09:34:36;8.23;;;5.43;;
920;SDS011;447;51.332;6.778;2022-12-18T09:37:05;8.30;;;5.40;;
920;SDS011;447;51.332;6.778;2022-12-18T09:39:38;7.97;;;5.30;;
920;SDS011;447;51.332;6.778;2022-12-18T09:42:08;10.35;;;6.57;;
920;SDS011;447;51.332;6.778;2022-12-18T09:44:58;8.23;;;5.50;;
920;SDS011;447;51.332;6.778;2022-12-18T09:47:33;8.52;;;5.70;;
920;SDS011;447;51.332;6.778;2022-12-18T09:50:13;10.65;;;5.95;;
920;SDS011;447;51.332;6.778;2022-12-18T09:53:02;9.02;;;5.40;;
920;SDS011;447;51.332;6.778;2022-12-18T09:55:39;11.20;;;6.13;;
920;SDS011;447;51.332;6.778;2022-12-18T10:00:45;7.70;;;5.63;;
920;SDS011;447;51.332;6.778;2022-12-18T10:03:14;8.32;;;5.10;;
920;SDS011;447;51.332;6.778;2022-12-18T10:06:00;10.25;;;6.32;;
920;SDS011;447;51.332;6.778;2022-12-18T10:11:14;7.90;;;5.70;;
920;SDS011;447;51.332;6.778;2022-12-18T10:13:58;9.38;;;6.65;;
920;SDS011;447;51.332;6.778;2022-12-18T10:16:42;9.90;;;5.30;;
920;SDS011;447;51.332;6.778;2022-12-18T10:27:24;10.40;;;5.28;;
920;SDS011;447;51.332;6.778;2022-12-18T10:29:52;9.80;;;6.15;;
920;SDS011;447;51.332;6.778;2022-12-18T10:32:20;10.32;;;6.38;;
920;SDS011;447;51.332;6.778;2022-12-18T10:34:55;12.45;;;6.32;;
920;SDS011;447;51.332;6.778;2022-12-18T10:37:28;10.38;;;6.32;;
920;SDS011;447;51.332;6.778;2022-12-18T10:43:10;8.20;;;5.32;;
920;SDS011;447;51.332;6.778;2022-12-18T10:45:40;7.70;;;5.50;;
920;SDS011;447;51.332;6.778;2022-12-18T10:48:22;9.38;;;5.68;;
920;SDS011;447;51.332;6.778;2022-12-18T10:50:50;8.88;;;5.18;;
920;SDS011;447;51.332;6.778;2022-12-18T10:53:22;15.75;;;6.90;;
920;SDS011;447;51.332;6.778;2022-12-18T10:55:54;17.45;;;6.32;;
920;SDS011;447;51.332;6.778;2022-12-18T11:01:01;19.85;;;7.75;;
920;SDS011;447;51.332;6.778;2022-12-18T11:06:23;11.55;;;6.90;;
920;SDS011;447;51.332;6.778;2022-12-18T11:09:06;17.75;;;6.20;;
920;SDS011;447;51.332;6.778;2022-12-18T11:11:52;8.50;;;5.30;;
920;SDS011;447;51.332;6.778;2022-12-18T11:14:31;12.93;;;6.25;;
920;SDS011;447;51.332;6.778;2022-12-18T11:17:04;9.23;;;5.68;;
920;SDS011;447;51.332;6.778;2022-12-18T11:19:34;11.65;;;5.95;;
920;SDS011;447;51.332;6.778;2022-12-18T11:22:16;11.73;;;6.40;;
920;SDS011;447;51.332;6.778;2022-12-18T11:24:52;8.75;;;5.10;;
920;SDS011;447;51.332;6.778;2022-12-18T11:27:24;11.63;;;5.45;;
920;SDS011;447;51.332;6.778;2022-12-18T11:30:29;9.80;;;5.80;;
920;SDS011;447;51.332;6.778;2022-12-18T11:33:05;10.90;;;5.93;;
920;SDS011;447;51.332;6.778;2022-12-18T11:35:42;12.75;;;6.22;;
920;SDS011;447;51.332;6.778;2022-12-18T11:40:55;10.40;;;6.10;;
920;SDS011;447;51.332;6.778;2022-12-18T11:43:35;10.63;;;6.40;;
920;SDS011;447;51.332;6.778;2022-12-18T11:46:32;12.52;;;6.55;;
920;SDS011;447;51.332;6.778;2022-12-18T11:52:18;14.27;;;7.55;;
920;SDS011;447;51.332;6.778;2022-12-18T11:54:30;11.60;;;6.03;;
920;SDS011;447;51.332;6.778;2022-12-18T11:57:08;12.05;;;6.22;;
920;SDS011;447;51.332;6.778;2022-12-18T12:16:37;14.95;;;7.30;;
920;SDS011;447;51.332;6.778;2022-12-18T12:19:19;17.27;;;7.07;;
920;SDS011;447;51.332;6.778;2022-12-18T12:27:48;11.32;;;6.82;;
920;SDS011;447;51.332;6.778;2022-12-18T12:30:39;13.57;;;7.90;;
920;SDS011;447;51.332;6.778;2022-12-18T12:35:46;10.80;;;6.72;;
920;SDS011;447;51.332;6.778;2022-12-18T12:41:22;11.40;;;6.65;;
920;SDS011;447;51.332;6.778;2022-12-18T12:44:13;12.32;;;7.15;;
920;SDS011;447;51.332;6.778;2022-12-18T12:46:48;11.23;;;7.20;;
920;SDS011;447;51.332;6.778;2022-12-18T12:49:28;11.10;;;7.93;;
920;SDS011;447;51.332;6.778;2022-12-18T12:52:35;14.85;;;7.95;;
920;SDS011;447;51.332;6.778;2022-12-18T12:55:26;12.95;;;7.40;;
920;SDS011;447;51.332;6.778;2022-12-18T13:00:44;12.10;;;7.90;;
920;SDS011;447;51.332;6.778;2022-12-18T13:03:46;11.25;;;7.13;;
920;SDS011;447;51.332;6.778;2022-12-18T13:06:24;16.40;;;8.85;;
920;SDS011;447;51.332;6.778;2022-12-18T13:09:03;14.07;;;8.05;;
920;SDS011;447;51.332;6.778;2022-12-18T13:11:39;14.98;;;8.55;;
920;SDS011;447;51.332;6.778;2022-12-18T13:19:42;14.63;;;8.18;;
920;SDS011;447;51.332;6.778;2022-12-18T13:22:28;13.73;;;8.40;;
920;SDS011;447;51.332;6.778;2022-12-18T13:24:57;14.43;;;8.82;;
920;SDS011;447;51.332;6.778;2022-12-18T13:35:52;16.13;;;8.85;;
920;SDS011;447;51.332;6.778;2022-12-18T13:38:40;13.80;;;8.18;;
920;SDS011;447;51.332;6.778;2022-12-18T13:43:43;16.92;;;10.05;;
920;SDS011;447;51.332;6.778;2022-12-18T13:46:41;14.40;;;8.55;;
920;SDS011;447;51.332;6.778;2022-12-18T13:52:14;19.75;;;10.02;;
920;SDS011;447;51.332;6.778;2022-12-18T13:54:56;15.25;;;8.65;;
920;SDS011;447;51.332;6.778;2022-12-18T13:59:53;15.93;;;9.13;;
920;SDS011;447;51.332;6.778;2022-12-18T14:02:23;17.05;;;9.95;;
920;SDS011;447;51.332;6.778;2022-12-18T14:04:52;18.50;;;10.10;;
920;SDS011;447;51.332;6.778;2022-12-18T14:07:19;16.88;;;9.48;;
920;SDS011;447;51.332;6.778;2022-12-18T14:09:52;15.85;;;9.55;;
920;SDS011;447;51.332;6.778;2022-12-18T14:12:31;16.30;;;10.05;;
920;SDS011;447;51.332;6.778;2022-12-18T14:17:57;16.95;;;9.95;;
920;SDS011;447;51.332;6.778;2022-12-18T14:20:25;14.27;;;10.00;;
920;SDS011;447;51.332;6.778;2022-12-18T14:22:53;17.67;;;10.70;;
920;SDS011;447;51.332;6.778;2022-12-18T14:25:22;14.55;;;9.43;;
920;SDS011;447;51.332;6.778;2022-12-18T14:30:48;16.17;;;9.88;;
920;SDS011;447;51.332;6.778;2022-12-18T14:33:20;18.42;;;10.48;;
920;SDS011;447;51.332;6.778;2022-12-18T14:36:00;18.98;;;11.05;;
920;SDS011;447;51.332;6.778;2022-12-18T14:38:38;15.65;;;10.43;;
920;SDS011;447;51.332;6.778;2022-12-18T14:41:06;16.80;;;10.30;;
920;SDS011;447;51.332;6.778;2022-12-18T14:43:40;21.15;;;10.48;;
920;SDS011;447;51.332;6.778;2022-12-18T14:49:04;16.73;;;9.68;;
920;SDS011;447;51.332;6.778;2022-12-18T14:51:57;14.85;;;9.73;;
920;SDS011;447;51.332;6.778;2022-12-18T14:54:30;21.38;;;11.60;;
920;SDS011;447;51.332;6.778;2022-12-18T14:59:50;15.30;;;9.70;;
920;SDS011;447;51.332;6.778;2022-12-18T15:02:23;17.30;;;10.27;;
920;SDS011;447;51.332;6.778;2022-12-18T15:05:04;15.48;;;9.98;;
920;SDS011;447;51.332;6.778;2022-12-18T15:07:51;25.30;;;12.45;;
920;SDS011;447;51.332;6.778;2022-12-18T15:10:31;17.92;;;10.30;;
920;SDS011;447;51.332;6.778;2022-12-18T15:26:17;16.67;;;11.30;;
920;SDS011;447;51.332;6.778;2022-12-18T15:28:50;16.58;;;11.00;;
920;SDS011;447;51.332;6.778;2022-12-18T15:31:28;17.33;;;10.38;;
920;SDS011;447;51.332;6.778;2022-12-18T15:36:24;24.27;;;11.68;;
920;SDS011;447;51.332;6.778;2022-12-18T15:38:56;16.83;;;11.05;;
920;SDS011;447;51.332;6.778;2022-12-18T15:41:22;20.08;;;11.40;;
920;SDS011;447;51.332;6.778;2022-12-18T15:43:50;21.08;;;12.13;;
920;SDS011;447;51.332;6.778;2022-12-18T15:46:18;21.17;;;12.05;;
920;SDS011;447;51.332;6.778;2022-12-18T15:48:58;20.50;;;10.93;;
920;SDS011;447;51.332;6.778;2022-12-18T15:51:26;16.02;;;10.40;;
920;SDS011;447;51.332;6.778;2022-12-18T15:53:55;21.88;;;11.82;;
920;SDS011;447;51.332;6.778;2022-12-18T15:56:26;21.65;;;12.50;;
920;SDS011;447;51.332;6.778;2022-12-18T15:59:15;18.27;;;12.05;;
920;SDS011;447;51.332;6.778;2022-12-18T16:01:43;21.63;;;12.13;;
920;SDS011;447;51.332;6.778;2022-12-18T16:04:15;19.30;;;11.95;;
920;SDS011;447;51.332;6.778;2022-12-18T16:06:45;22.63;;;12.48;;
920;SDS011;447;51.332;6.778;2022-12-18T16:09:12;21.27;;;12.30;;
920;SDS011;447;51.332;6.778;2022-12-18T16:11:38;19.60;;;11.47;;
920;SDS011;447;51.332;6.778;2022-12-18T16:14:20;19.85;;;11.90;;
920;SDS011;447;51.332;6.778;2022-12-18T16:16:49;23.50;;;12.95;;
920;SDS011;447;51.332;6.778;2022-12-18T16:19:17;19.58;;;11.57;;
920;SDS011;447;51.332;6.778;2022-12-18T16:21:44;23.55;;;13.45;;
920;SDS011;447;51.332;6.778;2022-12-18T16:24:15;22.00;;;12.15;;
920;SDS011;447;51.332;6.778;2022-12-18T16:26:47;22.20;;;12.65;;
920;SDS011;447;51.332;6.778;2022-12-18T16:29:14;22.30;;;12.52;;
920;SDS011;447;51.332;6.778;2022-12-18T16:31:40;21.27;;;12.18;;
920;SDS011;447;51.332;6.778;2022-12-18T16:39:40;22.15;;;13.27;;
920;SDS011;447;51.332;6.778;2022-12-18T16:44:42;20.88;;;13.50;;
920;SDS011;447;51.332;6.778;2022-12-18T16:47:09;24.13;;;12.73;;
920;SDS011;447;51.332;6.778;2022-12-18T16:49:39;23.27;;;13.20;;
920;SDS011;447;51.332;6.778;2022-12-18T16:52:08;23.98;;;14.57;;
920;SDS011;447;51.332;6.778;2022-12-18T16:54:34;20.00;;;13.00;;
920;SDS011;447;51.332;6.778;2022-12-18T16:57:03;23.55;;;14.02;;
920;SDS011;447;51.332;6.778;2022-12-18T16:59:32;20.67;;;12.80;;
920;SDS011;447;51.332;6.778;2022-12-18T17:02:01;21.15;;;12.73;;
920;SDS011;447;51.332;6.778;2022-12-18T17:04:27;21.00;;;13.85;;
920;SDS011;447;51.332;6.778;2022-12-18T17:06:53;22.30;;;13.67;;
920;SDS011;447;51.332;6.778;2022-12-18T17:09:20;21.70;;;13.00;;
920;SDS011;447;51.332;6.778;2022-12-18T17:11:52;25.52;;;13.48;;
920;SDS011;447;51.332;6.778;2022-12-18T17:14:23;19.83;;;13.90;;
920;SDS011;447;51.332;6.778;2022-12-18T17:16:50;24.20;;;13.55;;
920;SDS011;447;51.332;6.778;2022-12-18T17:19:16;19.42;;;12.32;;
920;SDS011;447;51.332;6.778;2022-12-18T17:21:43;21.60;;;13.65;;
920;SDS011;447;51.332;6.778;2022-12-18T17:24:11;23.92;;;13.27;;
920;SDS011;447;51.332;6.778;2022-12-18T17:26:39;24.55;;;14.18;;
920;SDS011;447;51.332;6.778;2022-12-18T17:29:06;25.08;;;14.57;;
920;SDS011;447;51.332;6.778;2022-12-18T17:31:33;22.27;;;14.30;;
920;SDS011;447;51.332;6.778;2022-12-18T17:34:03;24.00;;;14.23;;
920;SDS011;447;51.332;6.778;2022-12-18T17:36:31;21.50;;;13.55;;
920;SDS011;447;51.332;6.778;2022-12-18T17:38:59;23.05;;;14.63;;
920;SDS011;447;51.332;6.778;2022-12-18T17:41:26;21.08;;;13.75;;
920;SDS011;447;51.332;6.778;2022-12-18T17:43:53;23.80;;;13.68;;
920;SDS011;447;51.332;6.778;2022-12-18T17:46:33;21.95;;;13.63;;
920;SDS011;447;51.332;6.778;2022-12-18T17:49:01;24.13;;;14.95;;
920;SDS011;447;51.332;6.778;2022-12-18T17:51:30;22.65;;;14.02;;
920;SDS011;447;51.332;6.778;2022-12-18T17:53:56;26.15;;;14.82;;
920;SDS011;447;51.332;6.778;2022-12-18T17:56:23;27.17;;;16.30;;
920;SDS011;447;51.332;6.778;2022-12-18T17:58:54;25.63;;;15.23;;
920;SDS011;447;51.332;6.778;2022-12-18T18:01:23;22.88;;;13.43;;
920;SDS011;447;51.332;6.778;2022-12-18T18:03:49;25.20;;;15.45;;
920;SDS011;447;51.332;6.778;2022-12-18T18:06:16;25.92;;;13.98;;
920;SDS011;447;51.332;6.778;2022-12-18T18:08:46;23.55;;;14.57;;
920;SDS011;447;51.332;6.778;2022-12-18T18:11:13;25.25;;;14.90;;
920;SDS011;447;51.332;6.778;2022-12-18T18:14:00;24.50;;;13.80;;
920;SDS011;447;51.332;6.778;2022-12-18T18:16:39;31.20;;;15.32;;
920;SDS011;447;51.332;6.778;2022-12-18T18:19:07;23.88;;;14.90;;
920;SDS011;447;51.332;6.778;2022-12-18T18:21:39;26.35;;;14.18;;
920;SDS011;447;51.332;6.778;2022-12-18T18:24:07;24.20;;;15.30;;
920;SDS011;447;51.332;6.778;2022-12-18T18:26:35;29.38;;;15.70;;
920;SDS011;447;51.332;6.778;2022-12-18T18:29:02;27.98;;;15.73;;